Régionale des Jeunes - D

Date : 19/09/2010

Place Nom Licence Catégorie Club Temps Points
1 GRIMBERT Hervé 16398 H50 5907HF 0:35:31 3674
2 FONTAINE Helise 22962 D16 5907HF 0:42:58 3037
3 MALAK Nathan 22433 H14 5907HF 0:43:02 3033
4 GRESSIER Theo 22512 H14 6208HF 0:52:10 2502
5 PARENT Mathilde 22250 D14 6208HF 0:58:18 2238
6 RADONDY Théo 22370 H14 5907HF 1:00:33 2155
7 FAVIER Maxence 22251 H14 6208HF 1:06:27 1964
8 JUDAS Sylvaine 13635 D55 6208HF 1:06:44 1956
9 MASSIN Margot 22860 D14 5907HF 1:08:46 1898
10 BULLIER Romain 22157 H12 0207HF 1:24:25 1546
11 LUDEWIG-JAMES Carol 15894 D70 5907HF 1:25:43 1522
12 GALET Clement 15885 H14 6208HF 1:29:15 1462
13 LALOUX Clément 22447 H14 5907HF 1:31:45 1422
14 VANOVERBERGHE Nathalie 22237 D40 6208HF 1:32:59 1403
15 EJSMONT Martine 14164 D60 6208HF 1:35:33 1366
16 BULLIER Alisson 23427 D14 0207HF 1:40:47 1295
17 VANOVERBERGHE Philippe 22236 H45 6208HF 1:43:28 1261
18 DAMIENS Audrey 23540 D14 6205HF 1:45:05 1242
19 GERBEAUX Marie-jeanne 22417 D55 6205HF 1:47:43 1212
20 LECUYER Manon 22549 D14 5907HF 1:49:21 1193
21 TORZ-DRUON Magali 10081 D55 5906HF 2:03:07 1060
22 GOZE Anne 22931 D55 5907HF 2:07:16 1025
23 CLAVEL Nathalie 22803 D40 5907HF 2:08:23 1016
SENDRON Athènaïs 23458 D10 0207HF pm 0
PONCE Bernard 971 H65 0801GE pm 0
SENDRON Kathleen 22159 D12 0207HF pm 0
GUILMAIN Melanie 20572 D16 6208HF pm 0
GROSSI Kurtys 22925 H14 5907HF pm 0
GOURLAIN Clément 19759 H14 6205HF pm 0